Brazoria County Airport
KLBX : now visible

Airfield :











YOU CAN JOIN US ON...

 
LOGIN :

Register | Disclaimer

   EN    FR    IT 

 









Legend :    VFR   Marginal VFR   IFR   Intensive IFR   Very Intensive IFR
Visi :
Ceiling :
>= 8 km
>= 3000ft
5 to 8 km
1000 to 3000 ft
1500m to 5 km
500 to 1000 ft
800 to 1500m
200 to 500 ft
< 800m
< 200 ft
Symbols :   Thunderstorms  Fog  Heavy snow  Heavy precipitations  Wind > 20 kt






- Airport Elevation : 25 ft


KLBX - Brazoria County

CURRENT METAR :
  • 181853Z AUTO 36013KT 10SM CLR 18/07 A3008 RMK AO2 SLP186 T01830067

EXPIRED METARs :
  • 181753Z AUTO 36012KT 10SM BKN110 16/07 A3010 RMK AO2 SLP191 T01610067 10161 20106 58007
  • 181653Z AUTO 36015G23KT 10SM CLR 15/07 A3010 RMK AO2 SLP193 T01500067

TAF KLBX
Valid from the 18 at 18:00 until the 19 at 18:00 UTC


181720Z 1818/1918 36012G17KT P6SM BKN200
FM190400 36005KT P6SM FEW250
FM191400 04006KT P6SM SCT250
FM191600 06008KT P6SM SCT250
KZHU FIR / North America



MET'MAP, your aeronautical weather chart ! - Copyright ORBIFLY December 2007 - Disclaimer

ORBIFLY MET'MAP TEAM :

Programming & Development : Alexandra Zaïnal
Concept & original design : Baudouin d'Aumeries
Assistance for programming : Marc-Olivier Méhu
Technical & hardware support : Manuel Goepfert

Contact : metmap@orbifly.com




SOURCES & CREDITS :

   NOAA       Earth
Advisory